Time;durP1;ratioP1;P1;durP2;ratioP2;P2;SDS_P1;SDS_P2;PMS_P1;PMS_P2;Temp;Humidity;BMP_temperature;BMP_pressure;BME280_temperature;BME280_humidity;BME280_pressure;Samples;Min_cycle;Max_cycle;Signal;HPM_P1;HPM_P2
2022/01/06 00:01:02;;;;;;;;;;;;;;;;;;6212010;23;20248;-79
2022/01/06 00:03:28;;;;;;;;;;;;;;;;;;6195565;23;19908;-79
2022/01/06 00:05:54;;;;;;;;;;;;;;;;;;6210023;23;19907;-79
2022/01/06 00:08:21;;;;;;;;;;;;;;;;;;6211452;23;19903;-81
2022/01/06 00:10:48;;;;;;;;;;;;;;;;;;6210303;23;19912;-80
2022/01/06 00:13:19;;;;;;;;;;;;;;;;;;6212639;23;19957;-81
2022/01/06 00:18:26;;;;;;;;;;;;;;;;;;6214115;23;19908;-81
2022/01/06 00:23:42;;;;;;;;;;;;;;;;;;6210344;23;19904;-78
2022/01/06 00:26:08;;;;;;;;;;;;;;;;;;6211431;23;19908;-80
2022/01/06 00:28:35;;;;;;;;;;;;;;;;;;6208703;23;19904;-78
2022/01/06 00:31:01;;;;;;;;;;;;;;;;;;6211825;23;19912;-80
2022/01/06 00:33:27;;;;;;;;;;;;;;;;;;6211666;23;19907;-78
2022/01/06 00:35:53;;;;;;;;;;;;;;;;;;6210525;23;20771;-81
2022/01/06 00:38:21;;;;;;;;;;;;;;;;;;6212002;23;19911;-82
2022/01/06 00:40:47;;;;;;;;;;;;;;;;;;6209912;23;19904;-82
2022/01/06 00:43:14;;;;;;;;;;;;;;;;;;6211388;23;19973;-80
2022/01/06 00:45:40;;;;;;;;;;;;;;;;;;6210469;23;19927;-80
2022/01/06 00:48:10;;;;;;;;;;;;;;;;;;6184603;23;19903;-79
2022/01/06 00:50:36;;;;;;;;;;;;;;;;;;6240308;23;19993;-80
2022/01/06 00:53:04;;;;;;;;;;;;;;;;;;6241623;23;19904;-79
2022/01/06 00:55:31;;;;;;;;;;;;;;;;;;6214670;23;19962;-79
2022/01/06 00:57:57;;;;;;;;;;;;;;;;;;6213457;23;19903;-80
2022/01/06 01:00:27;;;;;;;;;;;;;;;;;;6240788;23;19911;-79
2022/01/06 01:02:53;;;;;;;;;;;;;;;;;;6240162;23;21287;-78
2022/01/06 01:05:19;;;;;;;;;;;;;;;;;;6240635;23;19908;-81
2022/01/06 01:07:46;;;;;;;;;;;;;;;;;;6240729;22;19910;-81
2022/01/06 01:10:12;;;;;;;;;;;;;;;;;;6242713;23;19911;-81
2022/01/06 01:12:38;;;;;;;;;;;;;;;;;;6220369;23;19907;-81
2022/01/06 01:15:07;;;;;;;;;;;;;;;;;;6247103;23;19904;-84
2022/01/06 01:17:33;;;;;;;;;;;;;;;;;;6249030;23;20017;-81
2022/01/06 01:19:59;;;;;;;;;;;;;;;;;;6243282;23;19957;-83
2022/01/06 01:22:26;;;;;;;;;;;;;;;;;;6243246;23;19907;-83
2022/01/06 01:24:52;;;;;;;;;;;;;;;;;;6214434;23;19914;-83
2022/01/06 01:27:23;;;;;;;;;;;;;;;;;;6242271;23;19930;-83
2022/01/06 01:30:03;;;;;;;;;;;;;;;;;;6213684;23;20618;-84
2022/01/06 01:32:35;;;;;;;;;;;;;;;;;;6241405;23;19911;-84
2022/01/06 01:35:02;;;;;;;;;;;;;;;;;;6240585;23;20253;-84
2022/01/06 01:37:29;;;;;;;;;;;;;;;;;;6246670;23;19908;-81
2022/01/06 01:39:55;;;;;;;;;;;;;;;;;;6243668;23;19908;-82
2022/01/06 01:42:21;;;;;;;;;;;;;;;;;;6242735;23;19903;-82
2022/01/06 01:44:49;;;;;;;;;;;;;;;;;;6242572;23;19904;-81
2022/01/06 01:47:16;;;;;;;;;;;;;;;;;;6241763;23;20283;-80
2022/01/06 01:49:51;;;;;;;;;;;;;;;;;;6220050;22;19938;-80
2022/01/06 01:52:18;;;;;;;;;;;;;;;;;;6184593;23;19916;-80
2022/01/06 01:54:44;;;;;;;;;;;;;;;;;;6209877;23;19980;-81
2022/01/06 01:57:10;;;;;;;;;;;;;;;;;;6183756;23;19904;-80
2022/01/06 01:59:36;;;;;;;;;;;;;;;;;;6182405;23;19966;-80
2022/01/06 02:02:02;;;;;;;;;;;;;;;;;;6209500;23;19904;-79
2022/01/06 02:04:29;;;;;;;;;;;;;;;;;;6181847;23;19908;-81
2022/01/06 02:06:55;;;;;;;;;;;;;;;;;;6209132;23;19903;-81
2022/01/06 02:09:21;;;;;;;;;;;;;;;;;;6210382;23;19904;-80
2022/01/06 02:11:47;;;;;;;;;;;;;;;;;;6209021;23;20320;-82
2022/01/06 02:14:13;;;;;;;;;;;;;;;;;;6210437;23;20374;-80
2022/01/06 02:16:40;;;;;;;;;;;;;;;;;;6210028;23;19904;-79
2022/01/06 02:19:06;;;;;;;;;;;;;;;;;;6210049;23;19904;-79
2022/01/06 02:21:32;;;;;;;;;;;;;;;;;;6183419;23;19911;-78
2022/01/06 02:23:58;;;;;;;;;;;;;;;;;;6209309;23;20612;-79
2022/01/06 02:26:24;;;;;;;;;;;;;;;;;;6184572;23;19904;-80
2022/01/06 02:28:51;;;;;;;;;;;;;;;;;;6209429;23;19911;-81
2022/01/06 02:31:17;;;;;;;;;;;;;;;;;;6208726;23;19917;-81
2022/01/06 02:33:43;;;;;;;;;;;;;;;;;;6182319;23;19911;-81
2022/01/06 02:36:09;;;;;;;;;;;;;;;;;;6210043;23;19904;-80
2022/01/06 02:38:36;;;;;;;;;;;;;;;;;;6209517;23;20382;-82
2022/01/06 02:41:02;;;;;;;;;;;;;;;;;;6183782;23;19915;-81
2022/01/06 02:43:30;;;;;;;;;;;;;;;;;;6210940;23;19925;-81
2022/01/06 02:45:56;;;;;;;;;;;;;;;;;;6209407;23;20390;-81
2022/01/06 02:48:22;;;;;;;;;;;;;;;;;;6210304;23;19908;-82
2022/01/06 02:50:48;;;;;;;;;;;;;;;;;;6209606;23;20013;-82
2022/01/06 02:53:15;;;;;;;;;;;;;;;;;;6211003;23;20283;-82
2022/01/06 02:55:41;;;;;;;;;;;;;;;;;;6210683;23;19911;-82
2022/01/06 02:58:07;;;;;;;;;;;;;;;;;;6210864;23;20317;-81
2022/01/06 03:00:35;;;;;;;;;;;;;;;;;;6211267;23;19912;-81
2022/01/06 03:03:01;;;;;;;;;;;;;;;;;;6211400;23;20283;-82
2022/01/06 03:05:27;;;;;;;;;;;;;;;;;;6184546;23;19908;-82
2022/01/06 03:07:53;;;;;;;;;;;;;;;;;;6209613;23;19918;-80
2022/01/06 03:10:20;;;;;;;;;;;;;;;;;;6211051;23;19912;-83
2022/01/06 03:12:46;;;;;;;;;;;;;;;;;;6211284;23;19908;-84
2022/01/06 03:15:12;;;;;;;;;;;;;;;;;;6212215;23;19911;-81
2022/01/06 03:17:38;;;;;;;;;;;;;;;;;;6210807;23;19903;-80
2022/01/06 03:20:04;;;;;;;;;;;;;;;;;;6185627;23;20284;-80
2022/01/06 03:22:31;;;;;;;;;;;;;;;;;;6211931;23;19904;-83
2022/01/06 03:24:57;;;;;;;;;;;;;;;;;;6210451;23;19912;-82
2022/01/06 03:27:23;;;;;;;;;;;;;;;;;;6212593;23;19904;-82
2022/01/06 03:29:50;;;;;;;;;;;;;;;;;;6210698;23;19908;-81
2022/01/06 03:32:16;;;;;;;;;;;;;;;;;;6212102;23;19919;-81
2022/01/06 03:34:42;;;;;;;;;;;;;;;;;;6211731;23;19923;-82
2022/01/06 03:37:08;;;;;;;;;;;;;;;;;;6185694;23;19931;-82
2022/01/06 03:39:35;;;;;;;;;;;;;;;;;;6211109;23;20312;-80
2022/01/06 03:42:01;;;;;;;;;;;;;;;;;;6212428;23;19954;-81
2022/01/06 03:44:27;;;;;;;;;;;;;;;;;;6211939;23;19904;-82
2022/01/06 03:46:53;;;;;;;;;;;;;;;;;;6210761;23;19907;-81
2022/01/06 03:49:19;;;;;;;;;;;;;;;;;;6211647;23;20307;-80
2022/01/06 03:51:46;;;;;;;;;;;;;;;;;;6210595;23;19912;-82
2022/01/06 03:54:12;;;;;;;;;;;;;;;;;;6212109;23;19904;-82
2022/01/06 03:56:38;;;;;;;;;;;;;;;;;;6211374;23;19905;-82
2022/01/06 03:59:04;;;;;;;;;;;;;;;;;;6212384;23;20000;-82
2022/01/06 04:01:31;;;;;;;;;;;;;;;;;;6212385;23;19904;-82
2022/01/06 04:03:57;;;;;;;;;;;;;;;;;;6211174;23;19907;-82
2022/01/06 04:06:23;;;;;;;;;;;;;;;;;;6214179;23;20186;-82
2022/01/06 04:08:49;;;;;;;;;;;;;;;;;;6215681;23;19908;-81
2022/01/06 04:11:15;;;;;;;;;;;;;;;;;;6214889;23;19919;-82
2022/01/06 04:13:42;;;;;;;;;;;;;;;;;;6210620;23;19904;-81
2022/01/06 04:16:10;;;;;;;;;;;;;;;;;;6212468;23;20237;-81
2022/01/06 04:18:36;;;;;;;;;;;;;;;;;;6211257;23;19903;-81
2022/01/06 04:21:03;;;;;;;;;;;;;;;;;;6185322;23;20244;-82
2022/01/06 04:23:29;;;;;;;;;;;;;;;;;;6211536;23;19911;-80
2022/01/06 04:25:55;;;;;;;;;;;;;;;;;;6209875;23;19916;-81
2022/01/06 04:28:21;;;;;;;;;;;;;;;;;;6210993;23;19904;-80
2022/01/06 04:30:47;;;;;;;;;;;;;;;;;;6184035;23;19912;-80
2022/01/06 04:33:13;;;;;;;;;;;;;;;;;;6211563;23;19915;-79
2022/01/06 04:35:40;;;;;;;;;;;;;;;;;;6210047;23;19904;-81
2022/01/06 04:38:06;;;;;;;;;;;;;;;;;;6211425;23;19915;-82
2022/01/06 04:40:32;;;;;;;;;;;;;;;;;;6185437;23;20299;-82
2022/01/06 04:42:58;;;;;;;;;;;;;;;;;;6209597;23;19911;-81
2022/01/06 04:45:24;;;;;;;;;;;;;;;;;;6211431;23;20295;-80
2022/01/06 04:47:51;;;;;;;;;;;;;;;;;;6183987;23;19911;-80
2022/01/06 04:50:17;;;;;;;;;;;;;;;;;;6210683;23;20248;-79
2022/01/06 04:52:43;;;;;;;;;;;;;;;;;;6209489;23;19915;-79
2022/01/06 04:55:09;;;;;;;;;;;;;;;;;;6210645;23;20295;-81
2022/01/06 04:57:35;;;;;;;;;;;;;;;;;;6210199;23;20252;-80
2022/01/06 05:00:02;;;;;;;;;;;;;;;;;;6211220;23;19903;-81
2022/01/06 05:02:28;;;;;;;;;;;;;;;;;;6211411;23;19908;-81
2022/01/06 05:04:54;;;;;;;;;;;;;;;;;;6209471;23;20355;-80
2022/01/06 05:07:20;;;;;;;;;;;;;;;;;;6210944;23;19919;-80
2022/01/06 05:09:46;;;;;;;;;;;;;;;;;;6183282;23;19954;-81
2022/01/06 05:12:13;;;;;;;;;;;;;;;;;;6185396;23;20474;-81
2022/01/06 05:14:39;;;;;;;;;;;;;;;;;;6211726;23;19904;-81
2022/01/06 05:17:06;;;;;;;;;;;;;;;;;;6214186;23;19911;-81
2022/01/06 05:19:32;;;;;;;;;;;;;;;;;;6187588;23;19958;-80
2022/01/06 05:21:59;;;;;;;;;;;;;;;;;;6210322;23;20352;-82
2022/01/06 05:24:25;;;;;;;;;;;;;;;;;;6184384;23;19907;-79
2022/01/06 05:26:54;;;;;;;;;;;;;;;;;;6195474;23;19904;-79
2022/01/06 05:29:20;;;;;;;;;;;;;;;;;;6211525;23;19904;-79
2022/01/06 05:31:47;;;;;;;;;;;;;;;;;;6209574;23;19912;-80
2022/01/06 05:34:13;;;;;;;;;;;;;;;;;;6210417;23;19911;-81
2022/01/06 05:36:39;;;;;;;;;;;;;;;;;;6210100;23;19926;-80
2022/01/06 05:39:05;;;;;;;;;;;;;;;;;;6211584;23;19904;-80
2022/01/06 05:41:31;;;;;;;;;;;;;;;;;;6211224;23;19907;-80
2022/01/06 05:43:57;;;;;;;;;;;;;;;;;;6183006;23;19908;-80
2022/01/06 05:46:24;;;;;;;;;;;;;;;;;;6210618;23;19915;-80
2022/01/06 05:48:50;;;;;;;;;;;;;;;;;;6209574;23;19916;-79
2022/01/06 05:51:16;;;;;;;;;;;;;;;;;;6211118;23;19916;-79
2022/01/06 05:53:42;;;;;;;;;;;;;;;;;;6209088;23;19904;-80
2022/01/06 05:56:09;;;;;;;;;;;;;;;;;;6210872;23;19904;-80
2022/01/06 05:58:36;;;;;;;;;;;;;;;;;;6182801;23;19938;-80
2022/01/06 06:01:02;;;;;;;;;;;;;;;;;;6210835;23;19967;-81
2022/01/06 06:03:29;;;;;;;;;;;;;;;;;;6210531;23;19915;-79
2022/01/06 06:05:55;;;;;;;;;;;;;;;;;;6207949;23;21486;-81
2022/01/06 06:08:21;;;;;;;;;;;;;;;;;;6184353;23;19903;-81
2022/01/06 06:10:47;;;;;;;;;;;;;;;;;;6209742;23;19908;-81
2022/01/06 06:13:13;;;;;;;;;;;;;;;;;;6210529;23;19912;-80
2022/01/06 06:15:40;;;;;;;;;;;;;;;;;;6182500;23;20390;-81
2022/01/06 06:18:06;;;;;;;;;;;;;;;;;;6210297;23;19910;-79
2022/01/06 06:20:32;;;;;;;;;;;;;;;;;;6210983;23;20014;-80
2022/01/06 06:22:58;;;;;;;;;;;;;;;;;;6209421;23;19904;-80
2022/01/06 06:25:24;;;;;;;;;;;;;;;;;;6210588;23;19907;-80
2022/01/06 06:27:51;;;;;;;;;;;;;;;;;;6209068;23;20252;-81
2022/01/06 06:30:18;;;;;;;;;;;;;;;;;;6184812;23;19911;-81
2022/01/06 06:32:44;;;;;;;;;;;;;;;;;;6183169;23;19923;-81
2022/01/06 06:35:10;;;;;;;;;;;;;;;;;;6210373;23;20324;-80
2022/01/06 06:37:36;;;;;;;;;;;;;;;;;;6209587;23;19904;-80
2022/01/06 06:40:02;;;;;;;;;;;;;;;;;;6210601;23;19911;-81
2022/01/06 06:42:29;;;;;;;;;;;;;;;;;;6210469;23;19926;-80
2022/01/06 06:44:55;;;;;;;;;;;;;;;;;;6209664;23;19939;-80
2022/01/06 06:47:22;;;;;;;;;;;;;;;;;;6213999;23;19908;-80
2022/01/06 06:49:48;;;;;;;;;;;;;;;;;;6212970;22;20252;-81
2022/01/06 06:52:14;;;;;;;;;;;;;;;;;;6215765;23;19924;-81
2022/01/06 06:54:40;;;;;;;;;;;;;;;;;;6217260;23;19904;-82
2022/01/06 06:57:07;;;;;;;;;;;;;;;;;;6196708;23;19976;-82
2022/01/06 06:59:33;;;;;;;;;;;;;;;;;;6220900;23;19904;-84
2022/01/06 07:01:59;;;;;;;;;;;;;;;;;;6185248;23;19914;-82
2022/01/06 07:04:25;;;;;;;;;;;;;;;;;;6186406;23;20252;-82
2022/01/06 07:06:52;;;;;;;;;;;;;;;;;;6210811;23;19915;-80
2022/01/06 07:09:18;;;;;;;;;;;;;;;;;;6211178;23;19908;-79
2022/01/06 07:11:44;;;;;;;;;;;;;;;;;;6210338;23;20288;-79
2022/01/06 07:14:10;;;;;;;;;;;;;;;;;;6211777;23;19919;-83
2022/01/06 07:16:36;;;;;;;;;;;;;;;;;;6183428;23;20374;-81
2022/01/06 07:19:02;;;;;;;;;;;;;;;;;;6212483;23;19904;-80
2022/01/06 07:21:29;;;;;;;;;;;;;;;;;;6211473;23;20376;-80
2022/01/06 07:23:55;;;;;;;;;;;;;;;;;;6210488;23;19965;-80
2022/01/06 07:26:21;;;;;;;;;;;;;;;;;;6209018;23;19904;-82
2022/01/06 07:28:47;;;;;;;;;;;;;;;;;;6210908;23;19904;-81
2022/01/06 07:31:13;;;;;;;;;;;;;;;;;;6212249;23;19912;-81
2022/01/06 07:33:40;;;;;;;;;;;;;;;;;;6210528;23;19919;-81
2022/01/06 07:36:07;;;;;;;;;;;;;;;;;;6211768;23;19911;-80
2022/01/06 07:38:33;;;;;;;;;;;;;;;;;;6211753;23;19904;-82
2022/01/06 07:40:59;;;;;;;;;;;;;;;;;;6210715;23;19904;-81
2022/01/06 07:43:25;;;;;;;;;;;;;;;;;;6212739;23;19912;-80
2022/01/06 07:45:52;;;;;;;;;;;;;;;;;;6210836;23;19904;-81
2022/01/06 07:48:25;;;;;;;;;;;;;;;;;;6211779;22;19908;-81
2022/01/06 07:50:51;;;;;;;;;;;;;;;;;;6209956;23;20225;-81
2022/01/06 07:53:17;;;;;;;;;;;;;;;;;;6211808;23;19903;-81
2022/01/06 07:55:43;;;;;;;;;;;;;;;;;;6209507;23;20345;-81
2022/01/06 07:58:10;;;;;;;;;;;;;;;;;;6210943;23;19910;-80
2022/01/06 08:00:36;;;;;;;;;;;;;;;;;;6184304;23;19988;-81
2022/01/06 08:03:02;;;;;;;;;;;;;;;;;;6209445;23;19904;-80
2022/01/06 08:05:28;;;;;;;;;;;;;;;;;;6211320;23;19911;-81
2022/01/06 08:07:55;;;;;;;;;;;;;;;;;;6209362;23;20018;-79
2022/01/06 08:10:21;;;;;;;;;;;;;;;;;;6210995;23;19904;-78
2022/01/06 08:12:47;;;;;;;;;;;;;;;;;;6210553;23;19912;-79
2022/01/06 08:15:16;;;;;;;;;;;;;;;;;;6210997;23;19911;-79
2022/01/06 08:17:43;;;;;;;;;;;;;;;;;;6209427;23;20324;-79
2022/01/06 08:20:09;;;;;;;;;;;;;;;;;;6211066;23;19930;-80
2022/01/06 08:22:35;;;;;;;;;;;;;;;;;;6209633;23;19912;-80
2022/01/06 08:25:01;;;;;;;;;;;;;;;;;;6209704;23;19904;-79
2022/01/06 08:27:28;;;;;;;;;;;;;;;;;;6210750;23;20248;-77
2022/01/06 08:29:54;;;;;;;;;;;;;;;;;;6209609;23;19919;-79
2022/01/06 08:32:20;;;;;;;;;;;;;;;;;;6210577;23;19934;-80
2022/01/06 08:34:46;;;;;;;;;;;;;;;;;;6209691;23;19904;-82
2022/01/06 08:37:12;;;;;;;;;;;;;;;;;;6210399;23;19911;-81
2022/01/06 08:39:39;;;;;;;;;;;;;;;;;;6209958;23;19908;-80
2022/01/06 08:42:05;;;;;;;;;;;;;;;;;;6184301;23;19904;-80
2022/01/06 08:44:31;;;;;;;;;;;;;;;;;;6209966;23;19915;-80
2022/01/06 08:47:00;;;;;;;;;;;;;;;;;;6208532;23;20248;-80
2022/01/06 08:49:26;;;;;;;;;;;;;;;;;;6210348;23;19927;-80
2022/01/06 08:51:53;;;;;;;;;;;;;;;;;;6209536;23;19912;-80
2022/01/06 08:54:19;;;;;;;;;;;;;;;;;;6211567;23;19913;-79
2022/01/06 08:56:45;;;;;;;;;;;;;;;;;;6209834;23;19907;-79
2022/01/06 08:59:11;;;;;;;;;;;;;;;;;;6209679;23;19905;-79
2022/01/06 09:01:37;;;;;;;;;;;;;;;;;;6209228;23;19904;-80
2022/01/06 09:04:04;;;;;;;;;;;;;;;;;;6209874;23;20212;-81
2022/01/06 09:06:30;;;;;;;;;;;;;;;;;;6209570;23;19903;-79
2022/01/06 09:08:56;;;;;;;;;;;;;;;;;;6208579;23;20229;-77
2022/01/06 09:11:22;;;;;;;;;;;;;;;;;;6209362;23;19912;-77
2022/01/06 09:13:48;;;;;;;;;;;;;;;;;;6207926;23;19908;-76
2022/01/06 09:16:14;;;;;;;;;;;;;;;;;;6209372;23;19908;-77
2022/01/06 09:18:41;;;;;;;;;;;;;;;;;;6208140;23;20729;-76
2022/01/06 09:21:07;;;;;;;;;;;;;;;;;;6209467;23;20642;-76
2022/01/06 09:23:33;;;;;;;;;;;;;;;;;;6209289;23;19907;-78
2022/01/06 09:25:59;;;;;;;;;;;;;;;;;;6208435;23;19908;-77
2022/01/06 09:28:25;;;;;;;;;;;;;;;;;;6209520;23;19912;-77
2022/01/06 09:30:52;;;;;;;;;;;;;;;;;;6208250;23;20329;-77
2022/01/06 09:33:18;;;;;;;;;;;;;;;;;;6210365;23;19935;-76
2022/01/06 09:35:45;;;;;;;;;;;;;;;;;;6182708;23;19915;-75
2022/01/06 09:38:11;;;;;;;;;;;;;;;;;;6210223;23;19907;-77
2022/01/06 09:40:37;;;;;;;;;;;;;;;;;;6210206;23;19904;-76
2022/01/06 09:43:03;;;;;;;;;;;;;;;;;;6211231;23;19904;-78
2022/01/06 09:45:32;;;;;;;;;;;;;;;;;;6210724;23;20248;-76
2022/01/06 09:47:58;;;;;;;;;;;;;;;;;;6210120;23;19912;-77
2022/01/06 09:50:24;;;;;;;;;;;;;;;;;;6209624;23;19926;-76
2022/01/06 09:52:50;;;;;;;;;;;;;;;;;;6207914;23;19919;-77
2022/01/06 09:55:16;;;;;;;;;;;;;;;;;;6208200;23;19907;-77
2022/01/06 09:57:43;;;;;;;;;;;;;;;;;;6206810;23;19904;-76
2022/01/06 10:00:09;;;;;;;;;;;;;;;;;;6208393;23;19903;-77
2022/01/06 10:02:35;;;;;;;;;;;;;;;;;;6208335;23;20319;-77
2022/01/06 10:05:02;;;;;;;;;;;;;;;;;;6207638;23;19911;-78
2022/01/06 10:07:28;;;;;;;;;;;;;;;;;;6183578;23;20438;-76
2022/01/06 10:09:54;;;;;;;;;;;;;;;;;;6208836;23;19908;-76
2022/01/06 10:12:21;;;;;;;;;;;;;;;;;;6210493;23;19912;-75
2022/01/06 10:14:47;;;;;;;;;;;;;;;;;;6209467;23;19903;-78
2022/01/06 10:17:14;;;;;;;;;;;;;;;;;;6214224;23;19904;-77
2022/01/06 10:19:40;;;;;;;;;;;;;;;;;;6214888;23;19923;-77
2022/01/06 10:22:06;;;;;;;;;;;;;;;;;;6217020;23;19904;-76
2022/01/06 10:24:33;;;;;;;;;;;;;;;;;;6216054;23;19908;-76
2022/01/06 10:27:01;;;;;;;;;;;;;;;;;;6214115;23;19904;-78
2022/01/06 10:29:27;;;;;;;;;;;;;;;;;;6212557;23;19911;-78
2022/01/06 10:31:53;;;;;;;;;;;;;;;;;;6226175;23;20328;-76
2022/01/06 10:34:19;;;;;;;;;;;;;;;;;;6226924;23;19908;-77
2022/01/06 10:36:48;;;;;;;;;;;;;;;;;;6219240;23;20248;-77
2022/01/06 10:39:14;;;;;;;;;;;;;;;;;;6210628;23;19908;-77
2022/01/06 10:41:40;;;;;;;;;;;;;;;;;;6208674;23;19907;-77
2022/01/06 10:44:09;;;;;;;;;;;;;;;;;;6184517;23;19908;-78
2022/01/06 10:46:36;;;;;;;;;;;;;;;;;;6194658;23;19944;-76
2022/01/06 10:49:02;;;;;;;;;;;;;;;;;;6191229;23;20452;-75
2022/01/06 10:51:28;;;;;;;;;;;;;;;;;;6238560;23;20343;-76
2022/01/06 10:53:54;;;;;;;;;;;;;;;;;;6236540;23;19919;-76
2022/01/06 10:56:23;;;;;;;;;;;;;;;;;;6236512;23;19970;-76
2022/01/06 10:58:50;;;;;;;;;;;;;;;;;;6207296;23;19907;-77
2022/01/06 11:01:16;;;;;;;;;;;;;;;;;;6236527;23;19908;-77
2022/01/06 11:03:42;;;;;;;;;;;;;;;;;;6236763;23;19904;-77
2022/01/06 11:06:10;;;;;;;;;;;;;;;;;;6211422;23;19995;-77
2022/01/06 11:08:41;;;;;;;;;;;;;;;;;;6211952;23;20516;-77
2022/01/06 11:13:36;;;;;;;;;;;;;;;;;;6238557;23;19907;-77
2022/01/06 11:16:02;;;;;;;;;;;;;;;;;;6237356;23;20267;-77
2022/01/06 11:18:29;;;;;;;;;;;;;;;;;;6238228;23;19961;-79
2022/01/06 11:20:55;;;;;;;;;;;;;;;;;;6236225;23;19908;-78
2022/01/06 11:23:21;;;;;;;;;;;;;;;;;;6238793;23;19908;-78
2022/01/06 11:25:48;;;;;;;;;;;;;;;;;;6237953;23;19910;-77
2022/01/06 11:28:15;;;;;;;;;;;;;;;;;;6238829;23;20371;-77
2022/01/06 11:30:41;;;;;;;;;;;;;;;;;;6211251;23;20443;-78
2022/01/06 11:33:07;;;;;;;;;;;;;;;;;;6239581;23;19915;-76
2022/01/06 11:35:34;;;;;;;;;;;;;;;;;;6238301;23;19907;-79
2022/01/06 11:38:00;;;;;;;;;;;;;;;;;;6238443;23;19903;-79
2022/01/06 11:40:26;;;;;;;;;;;;;;;;;;6238802;23;19907;-77
2022/01/06 11:42:52;;;;;;;;;;;;;;;;;;6238491;23;19908;-85
2022/01/06 11:45:18;;;;;;;;;;;;;;;;;;6238389;23;19903;-80
2022/01/06 11:47:45;;;;;;;;;;;;;;;;;;6236314;23;19915;-79
2022/01/06 11:50:11;;;;;;;;;;;;;;;;;;6238179;23;19927;-78
2022/01/06 11:52:37;;;;;;;;;;;;;;;;;;6238523;23;20295;-78
2022/01/06 11:55:03;;;;;;;;;;;;;;;;;;6235536;23;20488;-76
2022/01/06 11:57:34;;;;;;;;;;;;;;;;;;6223108;23;20328;-77
2022/01/06 12:00:01;;;;;;;;;;;;;;;;;;6221292;23;19904;-78
2022/01/06 12:02:27;;;;;;;;;;;;;;;;;;6238515;23;19934;-77
2022/01/06 12:04:53;;;;;;;;;;;;;;;;;;6237554;23;19918;-77
2022/01/06 12:07:19;;;;;;;;;;;;;;;;;;6211822;23;19907;-76
2022/01/06 12:09:46;;;;;;;;;;;;;;;;;;6236665;23;19908;-77
2022/01/06 12:12:13;;;;;;;;;;;;;;;;;;6238341;23;19915;-76
2022/01/06 12:14:40;;;;;;;;;;;;;;;;;;6237745;23;20378;-76
2022/01/06 12:17:06;;;;;;;;;;;;;;;;;;6238520;23;19908;-77
2022/01/06 12:19:32;;;;;;;;;;;;;;;;;;6238912;23;19904;-77
2022/01/06 12:21:58;;;;;;;;;;;;;;;;;;6237129;23;19990;-77
2022/01/06 12:24:24;;;;;;;;;;;;;;;;;;6238581;23;20320;-77
2022/01/06 12:26:51;;;;;;;;;;;;;;;;;;6237372;23;19910;-75
2022/01/06 12:29:19;;;;;;;;;;;;;;;;;;6238802;23;19914;-76
2022/01/06 12:31:45;;;;;;;;;;;;;;;;;;6211867;23;20379;-77
2022/01/06 12:34:12;;;;;;;;;;;;;;;;;;6239971;23;19907;-76
2022/01/06 12:36:40;;;;;;;;;;;;;;;;;;6239291;23;19911;-75
2022/01/06 12:39:06;;;;;;;;;;;;;;;;;;6236742;23;22438;-76
2022/01/06 12:41:34;;;;;;;;;;;;;;;;;;6237840;23;19903;-76
2022/01/06 12:44:00;;;;;;;;;;;;;;;;;;6236180;23;19930;-75
2022/01/06 12:46:26;;;;;;;;;;;;;;;;;;6237878;23;19914;-74
2022/01/06 12:48:52;;;;;;;;;;;;;;;;;;6236236;22;20325;-76
2022/01/06 12:51:19;;;;;;;;;;;;;;;;;;6238040;23;19911;-76
2022/01/06 12:53:45;;;;;;;;;;;;;;;;;;6236749;23;19907;-76
2022/01/06 12:56:11;;;;;;;;;;;;;;;;;;6238919;23;19986;-76
2022/01/06 12:58:37;;;;;;;;;;;;;;;;;;6239362;23;19957;-75
2022/01/06 13:01:04;;;;;;;;;;;;;;;;;;6210692;23;19958;-75
2022/01/06 13:03:30;;;;;;;;;;;;;;;;;;6212657;23;20457;-76
2022/01/06 13:05:56;;;;;;;;;;;;;;;;;;6238327;23;19912;-76
2022/01/06 13:08:22;;;;;;;;;;;;;;;;;;6239577;22;19973;-76
2022/01/06 13:10:48;;;;;;;;;;;;;;;;;;6238397;23;19903;-74
2022/01/06 13:13:15;;;;;;;;;;;;;;;;;;6240213;23;19920;-76
2022/01/06 13:15:41;;;;;;;;;;;;;;;;;;6238529;23;20243;-76
2022/01/06 13:18:07;;;;;;;;;;;;;;;;;;6239380;23;19938;-76
2022/01/06 13:20:37;;;;;;;;;;;;;;;;;;6239851;23;20373;-77
2022/01/06 13:23:23;;;;;;;;;;;;;;;;;;6238580;23;19903;-79
2022/01/06 13:25:49;;;;;;;;;;;;;;;;;;6238399;23;19907;-75
2022/01/06 13:28:15;;;;;;;;;;;;;;;;;;6212120;23;19903;-77
2022/01/06 13:30:43;;;;;;;;;;;;;;;;;;6238432;23;19904;-76
2022/01/06 13:33:09;;;;;;;;;;;;;;;;;;6237551;23;19916;-76
2022/01/06 13:35:35;;;;;;;;;;;;;;;;;;6237758;23;19907;-76
2022/01/06 13:38:03;;;;;;;;;;;;;;;;;;6209879;23;20602;-75
2022/01/06 13:40:29;;;;;;;;;;;;;;;;;;6233959;23;19995;-75
2022/01/06 13:42:55;;;;;;;;;;;;;;;;;;6237934;23;20354;-76
2022/01/06 13:45:26;;;;;;;;;;;;;;;;;;6239406;23;20694;-76
2022/01/06 13:48:02;;;;;;;;;;;;;;;;;;6237488;23;19954;-76
2022/01/06 13:53:13;;;;;;;;;;;;;;;;;;6236981;23;20303;-76
2022/01/06 13:55:39;;;;;;;;;;;;;;;;;;6211052;23;19908;-76
2022/01/06 13:58:05;;;;;;;;;;;;;;;;;;6238873;23;19903;-76
2022/01/06 14:00:31;;;;;;;;;;;;;;;;;;6237890;23;19908;-76
2022/01/06 14:02:58;;;;;;;;;;;;;;;;;;6235903;23;19908;-77
2022/01/06 14:05:25;;;;;;;;;;;;;;;;;;6237794;23;19907;-77
2022/01/06 14:07:51;;;;;;;;;;;;;;;;;;6236849;22;20019;-77
2022/01/06 14:10:17;;;;;;;;;;;;;;;;;;6238584;23;19912;-74
2022/01/06 14:12:43;;;;;;;;;;;;;;;;;;6236399;23;20394;-76
2022/01/06 14:15:10;;;;;;;;;;;;;;;;;;6239119;23;19904;-78
2022/01/06 14:17:37;;;;;;;;;;;;;;;;;;6238765;23;19907;-77
2022/01/06 14:20:04;;;;;;;;;;;;;;;;;;6186045;23;19919;-77
2022/01/06 14:22:30;;;;;;;;;;;;;;;;;;6238627;23;19938;-76
2022/01/06 14:24:57;;;;;;;;;;;;;;;;;;6238430;23;19911;-77
2022/01/06 14:27:23;;;;;;;;;;;;;;;;;;6238881;23;20298;-78
2022/01/06 14:29:49;;;;;;;;;;;;;;;;;;6237299;23;19908;-74
2022/01/06 14:32:15;;;;;;;;;;;;;;;;;;6211277;23;19911;-74
2022/01/06 14:34:41;;;;;;;;;;;;;;;;;;6238326;23;19904;-77
2022/01/06 14:37:08;;;;;;;;;;;;;;;;;;6239105;23;19926;-77
2022/01/06 14:39:34;;;;;;;;;;;;;;;;;;6211708;23;19938;-75
2022/01/06 14:42:00;;;;;;;;;;;;;;;;;;6234130;23;19911;-77
2022/01/06 14:44:26;;;;;;;;;;;;;;;;;;6236129;23;19907;-77
2022/01/06 14:46:52;;;;;;;;;;;;;;;;;;6236330;23;19908;-75
2022/01/06 14:49:20;;;;;;;;;;;;;;;;;;6237452;23;19922;-77
2022/01/06 14:51:47;;;;;;;;;;;;;;;;;;6237821;23;19915;-76
2022/01/06 14:54:14;;;;;;;;;;;;;;;;;;6210687;23;19908;-75
2022/01/06 14:56:42;;;;;;;;;;;;;;;;;;6236903;23;19907;-76
2022/01/06 14:59:08;;;;;;;;;;;;;;;;;;6238601;23;19908;-74
2022/01/06 15:01:34;;;;;;;;;;;;;;;;;;6237239;23;19908;-75
2022/01/06 15:04:00;;;;;;;;;;;;;;;;;;6236005;23;19907;-77
2022/01/06 15:06:26;;;;;;;;;;;;;;;;;;6237642;22;19907;-75
2022/01/06 15:08:53;;;;;;;;;;;;;;;;;;6237826;23;20363;-76
2022/01/06 15:11:19;;;;;;;;;;;;;;;;;;6238252;23;19911;-76
2022/01/06 15:13:45;;;;;;;;;;;;;;;;;;6237920;23;19935;-76
2022/01/06 15:16:11;;;;;;;;;;;;;;;;;;6241010;23;20291;-76
2022/01/06 15:18:37;;;;;;;;;;;;;;;;;;6240747;23;19908;-77
2022/01/06 15:21:04;;;;;;;;;;;;;;;;;;6239448;23;19908;-75
2022/01/06 15:23:30;;;;;;;;;;;;;;;;;;6240179;23;19911;-77
2022/01/06 15:25:56;;;;;;;;;;;;;;;;;;6238074;23;19908;-75
2022/01/06 15:28:22;;;;;;;;;;;;;;;;;;6239596;23;20382;-78
2022/01/06 15:30:48;;;;;;;;;;;;;;;;;;6237919;23;19907;-76
2022/01/06 15:33:15;;;;;;;;;;;;;;;;;;6209913;23;19923;-77
2022/01/06 15:35:41;;;;;;;;;;;;;;;;;;6237236;23;19908;-76
2022/01/06 15:38:07;;;;;;;;;;;;;;;;;;6238778;23;19960;-75
2022/01/06 15:40:33;;;;;;;;;;;;;;;;;;6236608;23;19904;-75
2022/01/06 15:43:02;;;;;;;;;;;;;;;;;;6238770;23;20185;-75
2022/01/06 15:45:28;;;;;;;;;;;;;;;;;;6205831;23;19904;-76
2022/01/06 15:47:54;;;;;;;;;;;;;;;;;;6237337;23;19907;-76
2022/01/06 15:50:20;;;;;;;;;;;;;;;;;;6238442;22;19915;-77
2022/01/06 15:52:47;;;;;;;;;;;;;;;;;;6237496;23;19911;-77
2022/01/06 15:55:13;;;;;;;;;;;;;;;;;;6239039;23;19903;-82
2022/01/06 15:57:39;;;;;;;;;;;;;;;;;;6240103;23;20247;-78
2022/01/06 16:05:36;;;;;;;;;;;;;;;;;;6237840;23;19907;-78
2022/01/06 16:08:02;;;;;;;;;;;;;;;;;;6239061;22;19968;-77
2022/01/06 16:10:30;;;;;;;;;;;;;;;;;;6239540;23;19961;-78
2022/01/06 16:12:56;;;;;;;;;;;;;;;;;;6238511;23;20239;-78
2022/01/06 16:15:23;;;;;;;;;;;;;;;;;;6240033;23;19904;-76
2022/01/06 16:17:50;;;;;;;;;;;;;;;;;;6237791;23;19903;-77
2022/01/06 16:20:16;;;;;;;;;;;;;;;;;;6238290;23;19907;-77
2022/01/06 16:22:42;;;;;;;;;;;;;;;;;;6237563;23;20284;-77
2022/01/06 16:25:08;;;;;;;;;;;;;;;;;;6238399;23;19930;-78
2022/01/06 16:27:34;;;;;;;;;;;;;;;;;;6241266;23;19915;-80
2022/01/06 16:30:01;;;;;;;;;;;;;;;;;;6213111;23;19958;-81
2022/01/06 16:32:27;;;;;;;;;;;;;;;;;;6240451;23;19916;-79
2022/01/06 16:34:54;;;;;;;;;;;;;;;;;;6237758;23;20347;-78
2022/01/06 16:37:20;;;;;;;;;;;;;;;;;;6240713;23;19908;-78
2022/01/06 16:39:47;;;;;;;;;;;;;;;;;;6212265;23;20229;-78
2022/01/06 16:42:13;;;;;;;;;;;;;;;;;;6238114;23;19908;-77
2022/01/06 16:44:40;;;;;;;;;;;;;;;;;;6240320;23;19915;-78
2022/01/06 16:47:06;;;;;;;;;;;;;;;;;;6237508;23;20711;-78
2022/01/06 16:49:32;;;;;;;;;;;;;;;;;;6240735;23;20233;-76
2022/01/06 16:51:58;;;;;;;;;;;;;;;;;;6238850;23;19924;-80
2022/01/06 16:54:24;;;;;;;;;;;;;;;;;;6240386;23;20252;-79
2022/01/06 16:56:50;;;;;;;;;;;;;;;;;;6238940;23;19911;-80